createdAt,value
2017-12-13T00:01:03.968Z,99.90
2017-12-13T00:03:31.813Z,99.90
2017-12-13T00:05:59.699Z,99.90
2017-12-13T00:08:27.567Z,99.90
2017-12-13T00:10:55.535Z,99.90
2017-12-13T00:13:23.396Z,99.90
2017-12-13T00:15:51.369Z,99.90
2017-12-13T00:18:20.053Z,99.90
2017-12-13T00:20:47.820Z,99.90
2017-12-13T00:23:15.576Z,99.90
2017-12-13T00:25:43.452Z,99.90
2017-12-13T00:28:11.403Z,99.90
2017-12-13T00:30:39.189Z,99.90
2017-12-13T00:33:07.045Z,99.90
2017-12-13T00:35:35.016Z,99.90
2017-12-13T00:38:03.479Z,99.90
2017-12-13T00:40:31.442Z,99.90
2017-12-13T00:42:59.263Z,99.90
2017-12-13T00:45:27.802Z,99.90
2017-12-13T00:47:55.558Z,99.90
2017-12-13T00:50:23.421Z,99.90
2017-12-13T00:52:51.509Z,99.90
2017-12-13T00:55:25.940Z,99.90
2017-12-13T00:57:53.684Z,99.90
2017-12-13T01:00:21.571Z,99.90
2017-12-13T01:02:49.412Z,99.90
2017-12-13T01:05:17.203Z,99.90
2017-12-13T01:07:45.047Z,99.90
2017-12-13T01:10:12.926Z,99.90
2017-12-13T01:12:40.687Z,99.90
2017-12-13T01:15:09.370Z,99.90
2017-12-13T01:17:37.226Z,99.90
2017-12-13T01:20:05.114Z,99.90
2017-12-13T01:22:32.978Z,99.90
2017-12-13T01:25:00.924Z,99.90
2017-12-13T01:27:28.687Z,99.90
2017-12-13T01:29:56.654Z,99.90
2017-12-13T01:32:24.442Z,99.90
2017-12-13T01:34:52.314Z,99.90
2017-12-13T01:37:20.459Z,99.90
2017-12-13T01:39:48.869Z,99.90
2017-12-13T01:42:16.741Z,99.90
2017-12-13T01:44:45.391Z,99.90
2017-12-13T01:47:13.386Z,99.90
2017-12-13T01:49:41.223Z,99.90
2017-12-13T01:52:09.087Z,99.90
2017-12-13T01:54:36.974Z,99.90
2017-12-13T01:57:04.841Z,99.90
2017-12-13T01:59:32.668Z,99.90
2017-12-13T02:02:00.443Z,99.90
2017-12-13T02:04:28.293Z,99.90
2017-12-13T02:06:56.082Z,99.90
2017-12-13T02:09:23.847Z,99.90
2017-12-13T02:11:51.731Z,99.90
2017-12-13T02:14:19.555Z,99.90
2017-12-13T02:16:47.472Z,99.90
2017-12-13T02:19:15.397Z,99.90
2017-12-13T02:21:43.411Z,99.90
2017-12-13T02:24:11.271Z,99.90
2017-12-13T02:26:39.021Z,99.90
2017-12-13T02:29:06.841Z,99.90
2017-12-13T02:31:34.745Z,99.90
2017-12-13T02:34:02.487Z,99.90
2017-12-13T02:36:30.259Z,99.90
2017-12-13T02:38:58.014Z,99.90
2017-12-13T02:41:26.006Z,99.90
2017-12-13T02:43:53.747Z,99.90
2017-12-13T02:46:21.799Z,99.90
2017-12-13T02:48:50.971Z,99.90
2017-12-13T02:51:18.726Z,99.90
2017-12-13T02:53:46.878Z,99.90
2017-12-13T02:56:14.760Z,99.90
2017-12-13T02:58:43.755Z,99.90
2017-12-13T03:01:11.620Z,99.90
2017-12-13T03:03:39.581Z,99.90
2017-12-13T03:06:07.556Z,99.90
2017-12-13T03:08:35.430Z,99.90
2017-12-13T03:11:03.472Z,99.90
2017-12-13T03:13:31.270Z,99.90
2017-12-13T03:15:59.133Z,99.90
2017-12-13T03:18:27.175Z,99.90
2017-12-13T03:20:55.060Z,99.90
2017-12-13T03:23:23.424Z,99.90
2017-12-13T03:25:51.302Z,99.90
2017-12-13T03:28:19.182Z,99.90
2017-12-13T03:30:47.043Z,99.90
2017-12-13T03:33:14.915Z,99.90
2017-12-13T03:35:42.768Z,99.90
2017-12-13T03:38:10.740Z,99.90
2017-12-13T03:40:39.290Z,99.90
2017-12-13T03:43:07.269Z,99.90
2017-12-13T03:45:35.155Z,99.90
2017-12-13T03:48:03.023Z,99.90
2017-12-13T03:50:30.894Z,99.90
2017-12-13T03:52:58.764Z,99.90
2017-12-13T03:55:27.355Z,99.90
2017-12-13T03:57:55.187Z,99.90
2017-12-13T04:00:23.074Z,99.90
2017-12-13T04:02:51.630Z,99.90
2017-12-13T04:05:19.523Z,99.90
2017-12-13T04:07:47.387Z,99.90
2017-12-13T04:10:15.234Z,99.90
2017-12-13T04:12:43.096Z,99.90
2017-12-13T04:15:10.946Z,99.90
2017-12-13T04:17:38.859Z,99.90
2017-12-13T04:20:06.816Z,99.90
2017-12-13T04:22:34.706Z,99.90
2017-12-13T04:25:03.580Z,99.90
2017-12-13T04:27:32.038Z,99.90
2017-12-13T04:29:59.903Z,99.90
2017-12-13T04:32:27.680Z,99.90
2017-12-13T04:34:55.548Z,99.90
2017-12-13T04:37:23.315Z,99.90
2017-12-13T04:39:51.080Z,99.90
2017-12-13T04:42:18.954Z,99.90
2017-12-13T04:44:46.794Z,99.90
2017-12-13T04:47:14.576Z,99.90
2017-12-13T04:49:42.428Z,99.90
2017-12-13T04:52:10.252Z,99.90
2017-12-13T04:54:38.173Z,99.90
2017-12-13T04:57:06.037Z,99.90
2017-12-13T04:59:33.858Z,99.90
2017-12-13T05:02:01.616Z,99.90
2017-12-13T05:04:29.525Z,99.90
2017-12-13T05:06:57.405Z,99.90
2017-12-13T05:09:25.277Z,99.90
2017-12-13T05:11:53.116Z,99.90
2017-12-13T05:14:21.111Z,99.90
2017-12-13T05:16:48.974Z,99.90
2017-12-13T05:19:16.834Z,99.90
2017-12-13T05:21:44.721Z,99.90
2017-12-13T05:24:13.488Z,99.90
2017-12-13T05:26:41.371Z,99.90
2017-12-13T05:29:09.207Z,99.90
2017-12-13T05:31:37.000Z,99.90
2017-12-13T05:34:04.793Z,99.90
2017-12-13T05:36:32.559Z,99.90
2017-12-13T05:39:00.464Z,99.90
2017-12-13T05:41:28.349Z,99.90
2017-12-13T05:43:56.297Z,99.90
2017-12-13T05:46:24.086Z,99.90
2017-12-13T05:48:51.963Z,99.90
2017-12-13T05:51:19.721Z,99.90
2017-12-13T05:53:47.589Z,99.90
2017-12-13T05:56:15.543Z,99.90
2017-12-13T05:58:43.399Z,99.90
2017-12-13T06:01:11.259Z,99.90
2017-12-13T06:03:39.861Z,99.90
2017-12-13T06:06:07.808Z,99.90
2017-12-13T06:08:35.575Z,99.90
2017-12-13T06:11:03.460Z,99.90
2017-12-13T06:13:31.834Z,99.90
2017-12-13T06:16:00.359Z,99.90
2017-12-13T06:18:29.000Z,99.90
2017-12-13T06:20:56.830Z,99.90
2017-12-13T06:23:24.660Z,99.90
2017-12-13T06:25:53.713Z,99.90
2017-12-13T06:28:21.837Z,99.90
2017-12-13T06:30:50.484Z,99.90
2017-12-13T06:33:19.186Z,99.90
2017-12-13T06:35:46.979Z,99.90
2017-12-13T06:38:14.992Z,99.90
2017-12-13T06:40:42.856Z,99.90
2017-12-13T06:43:10.658Z,99.90
2017-12-13T06:45:39.378Z,99.90
2017-12-13T06:48:07.377Z,99.90
2017-12-13T06:50:35.345Z,99.90
2017-12-13T06:53:03.234Z,99.90
2017-12-13T06:55:31.103Z,99.90
2017-12-13T06:57:58.965Z,99.90
2017-12-13T07:00:26.836Z,99.90
2017-12-13T07:02:54.694Z,99.90
2017-12-13T07:05:22.561Z,99.90
2017-12-13T07:07:50.434Z,99.90
2017-12-13T07:10:18.225Z,99.90
2017-12-13T07:12:46.981Z,99.90
2017-12-13T07:15:15.542Z,99.90
2017-12-13T07:17:43.360Z,99.90
2017-12-13T07:20:11.991Z,99.90
2017-12-13T07:22:39.978Z,99.90
2017-12-13T07:25:07.741Z,99.90
2017-12-13T07:27:35.605Z,99.90
2017-12-13T07:30:03.481Z,99.90
2017-12-13T07:32:31.338Z,99.90
2017-12-13T07:34:59.201Z,99.90
2017-12-13T07:37:27.076Z,99.90
2017-12-13T07:39:54.903Z,99.90
2017-12-13T07:42:22.705Z,99.90
2017-12-13T07:44:50.651Z,99.90
2017-12-13T07:47:18.620Z,99.90
2017-12-13T07:49:46.488Z,99.90
2017-12-13T07:52:14.267Z,99.90
2017-12-13T07:54:42.101Z,99.90
2017-12-13T07:57:10.003Z,99.90
2017-12-13T07:59:37.788Z,99.90
2017-12-13T08:02:06.358Z,99.90
2017-12-13T08:04:34.223Z,99.90
2017-12-13T08:07:02.493Z,99.90
2017-12-13T08:09:30.564Z,99.90
2017-12-13T08:11:58.326Z,99.90
2017-12-13T08:14:26.090Z,99.90
2017-12-13T08:16:53.855Z,99.90
2017-12-13T08:19:21.629Z,99.90
2017-12-13T08:21:50.220Z,99.90
2017-12-13T08:24:18.010Z,99.90
2017-12-13T08:26:45.810Z,99.90
2017-12-13T08:29:13.577Z,99.90
2017-12-13T08:31:41.466Z,99.90
2017-12-13T08:34:09.335Z,99.90
2017-12-13T08:36:37.750Z,99.90
2017-12-13T08:39:05.557Z,99.90
2017-12-13T08:41:33.550Z,99.90
2017-12-13T08:44:01.490Z,99.90
2017-12-13T08:46:29.300Z,99.90
2017-12-13T08:48:57.855Z,99.90
2017-12-13T08:51:25.674Z,99.90
2017-12-13T08:53:53.496Z,99.90
2017-12-13T08:56:21.367Z,99.90
2017-12-13T08:58:49.135Z,99.90
2017-12-13T09:01:16.987Z,99.90
2017-12-13T09:03:45.722Z,99.90
2017-12-13T09:06:13.646Z,99.90
2017-12-13T09:08:41.504Z,99.90
2017-12-13T09:11:09.332Z,99.90
2017-12-13T09:13:37.136Z,99.90
2017-12-13T09:16:05.083Z,99.90
2017-12-13T09:18:32.849Z,99.90
2017-12-13T09:21:00.629Z,99.90
2017-12-13T09:23:28.508Z,99.90
2017-12-13T09:25:56.370Z,99.90
2017-12-13T09:28:24.313Z,99.90
2017-12-13T09:30:52.212Z,99.90
2017-12-13T09:33:20.071Z,99.90
2017-12-13T09:35:47.912Z,99.90
2017-12-13T09:38:15.884Z,99.90
2017-12-13T09:40:43.867Z,99.90
2017-12-13T09:43:11.834Z,99.90
2017-12-13T09:45:39.788Z,99.90
2017-12-13T09:48:07.666Z,99.90
2017-12-13T09:50:35.570Z,99.90
2017-12-13T09:53:04.308Z,99.90
2017-12-13T09:55:32.192Z,99.90
2017-12-13T09:58:00.245Z,99.90
2017-12-13T10:00:28.231Z,99.90
2017-12-13T10:02:56.100Z,99.90
2017-12-13T10:05:23.909Z,99.90
2017-12-13T10:07:52.636Z,99.90
2017-12-13T10:10:20.500Z,99.90
2017-12-13T10:12:49.094Z,99.90
2017-12-13T10:15:16.879Z,99.90
2017-12-13T10:17:44.753Z,99.90
2017-12-13T10:20:12.702Z,99.90
2017-12-13T10:22:41.274Z,99.90
2017-12-13T10:25:09.034Z,99.90
2017-12-13T10:27:36.812Z,99.90
2017-12-13T10:30:04.582Z,99.90
2017-12-13T10:32:32.436Z,99.90
2017-12-13T10:35:00.428Z,99.90
2017-12-13T10:37:28.183Z,99.90
2017-12-13T10:39:56.223Z,99.90
2017-12-13T10:42:24.090Z,99.90
2017-12-13T10:44:51.868Z,99.90
2017-12-13T10:47:19.628Z,99.90
2017-12-13T10:49:47.607Z,99.90
2017-12-13T10:52:15.454Z,99.90
2017-12-13T10:54:43.426Z,99.90
2017-12-13T10:57:11.400Z,99.90
2017-12-13T10:59:39.257Z,99.90
2017-12-13T11:02:07.151Z,99.90
2017-12-13T11:04:35.112Z,99.90
2017-12-13T11:07:02.972Z,99.90
2017-12-13T11:09:30.850Z,99.90
2017-12-13T11:11:58.791Z,99.90
2017-12-13T11:14:26.585Z,99.90
2017-12-13T11:16:55.304Z,99.90
2017-12-13T11:19:24.032Z,99.90
2017-12-13T11:21:51.842Z,99.90
2017-12-13T11:24:20.402Z,99.90
2017-12-13T11:26:48.353Z,99.90
2017-12-13T11:29:16.315Z,99.90
2017-12-13T11:31:44.071Z,99.90
2017-12-13T11:34:11.952Z,99.90
2017-12-13T11:36:39.745Z,99.90
2017-12-13T11:39:07.598Z,99.90
2017-12-13T11:41:35.467Z,99.90
2017-12-13T11:44:03.324Z,99.90
2017-12-13T11:46:31.293Z,99.90
2017-12-13T11:48:59.074Z,99.90
2017-12-13T11:51:26.920Z,99.90
2017-12-13T11:53:54.791Z,99.90
2017-12-13T11:56:22.555Z,99.90
2017-12-13T11:58:50.407Z,99.90
2017-12-13T12:01:18.292Z,99.90
2017-12-13T12:03:46.200Z,99.90
2017-12-13T12:06:14.832Z,99.90
2017-12-13T12:08:42.690Z,99.90
2017-12-13T12:11:10.469Z,99.90
2017-12-13T12:13:38.319Z,99.90
2017-12-13T12:16:06.300Z,99.90
2017-12-13T12:18:34.272Z,99.90
2017-12-13T12:21:02.053Z,99.90
2017-12-13T12:23:30.197Z,99.90
2017-12-13T12:25:57.993Z,99.90
2017-12-13T12:28:25.842Z,99.90
2017-12-13T12:30:53.828Z,99.60
2017-12-13T12:33:21.770Z,99.80
2017-12-13T12:35:49.650Z,99.50
2017-12-13T12:38:17.597Z,99.90
2017-12-13T12:40:45.463Z,99.90
2017-12-13T12:43:13.216Z,99.60
2017-12-13T12:45:41.117Z,98.20
2017-12-13T12:48:08.877Z,97.70
2017-12-13T12:50:36.650Z,98.70
2017-12-13T12:53:04.520Z,99.70
2017-12-13T12:55:32.361Z,97.80
2017-12-13T12:58:00.346Z,98.40
2017-12-13T13:00:28.294Z,99.20
2017-12-13T13:02:56.278Z,99.90
2017-12-13T13:05:24.065Z,99.90
2017-12-13T13:07:52.015Z,97.70
2017-12-13T13:10:19.890Z,97.30
2017-12-13T13:12:47.762Z,97.90
2017-12-13T13:15:15.710Z,96.60
2017-12-13T13:17:43.716Z,99.70
2017-12-13T13:20:12.842Z,97.60
2017-12-13T13:22:40.838Z,97.50
2017-12-13T13:25:08.619Z,99.90
2017-12-13T13:27:36.491Z,98.10
2017-12-13T13:30:05.568Z,99.90
2017-12-13T13:32:33.641Z,99.90
2017-12-13T13:35:01.643Z,99.60
2017-12-13T13:37:30.490Z,99.40
2017-12-13T13:39:58.551Z,99.40
2017-12-13T13:42:26.632Z,99.90
2017-12-13T13:44:54.534Z,99.90
2017-12-13T13:47:23.696Z,99.70
2017-12-13T13:49:51.688Z,99.70
2017-12-13T13:52:19.685Z,99.90
2017-12-13T13:54:47.655Z,99.90
2017-12-13T13:57:16.322Z,99.90
2017-12-13T13:59:45.276Z,99.90
2017-12-13T14:02:13.452Z,99.90
2017-12-13T14:04:41.656Z,99.90
2017-12-13T14:07:09.616Z,99.90
2017-12-13T14:09:37.793Z,99.90
2017-12-13T14:12:06.419Z,99.90
2017-12-13T14:14:34.454Z,99.90
2017-12-13T14:17:02.327Z,99.90
2017-12-13T14:19:31.089Z,99.90
2017-12-13T14:21:59.198Z,99.90
2017-12-13T14:24:27.935Z,99.90
2017-12-13T14:26:56.210Z,99.90
2017-12-13T14:29:23.986Z,99.90
2017-12-13T14:31:52.587Z,99.90
2017-12-13T14:34:21.269Z,99.90
2017-12-13T14:36:49.123Z,99.90
2017-12-13T14:39:17.079Z,99.90
2017-12-13T14:41:45.041Z,99.90
2017-12-13T14:44:13.132Z,99.90
2017-12-13T14:46:41.018Z,99.90
2017-12-13T14:49:08.955Z,99.90
2017-12-13T14:51:36.816Z,99.90
2017-12-13T14:54:04.792Z,99.90
2017-12-13T14:56:32.777Z,99.90
2017-12-13T14:59:00.724Z,99.90
2017-12-13T15:01:28.478Z,99.90
2017-12-13T15:03:56.270Z,99.90
2017-12-13T15:06:24.428Z,99.90
2017-12-13T15:08:52.209Z,99.90
2017-12-13T15:11:20.112Z,99.90
2017-12-13T15:13:48.741Z,99.90
2017-12-13T15:16:16.728Z,99.90
2017-12-13T15:18:44.583Z,99.90
2017-12-13T15:21:12.740Z,99.90
2017-12-13T15:23:40.662Z,99.90
2017-12-13T15:26:09.230Z,99.90
2017-12-13T15:28:37.198Z,99.90
2017-12-13T15:31:05.030Z,99.90
2017-12-13T15:33:32.913Z,99.90
2017-12-13T15:36:00.871Z,99.90
2017-12-13T15:38:28.704Z,99.90
2017-12-13T15:40:56.527Z,99.90
2017-12-13T15:43:24.322Z,99.90
2017-12-13T15:45:52.189Z,99.90
2017-12-13T15:48:20.843Z,99.90
2017-12-13T15:50:49.402Z,99.90
2017-12-13T15:53:17.368Z,99.90
2017-12-13T15:55:45.890Z,99.90
2017-12-13T15:58:14.645Z,99.90
2017-12-13T16:00:42.503Z,99.90
2017-12-13T16:03:10.468Z,99.90
2017-12-13T16:05:38.646Z,99.90
2017-12-13T16:08:06.536Z,99.90
2017-12-13T16:10:35.840Z,99.90
2017-12-13T16:13:03.697Z,99.90
2017-12-13T16:15:31.782Z,99.90
2017-12-13T16:17:59.640Z,99.90
2017-12-13T16:20:27.745Z,99.90
2017-12-13T16:22:56.400Z,99.90
2017-12-13T16:25:24.169Z,99.90
2017-12-13T16:27:52.001Z,99.90
2017-12-13T16:30:19.868Z,99.90
2017-12-13T16:32:47.701Z,99.90
2017-12-13T16:35:15.817Z,99.90
2017-12-13T16:37:43.702Z,99.90
2017-12-13T16:40:11.744Z,99.90
2017-12-13T16:42:39.634Z,99.90
2017-12-13T16:45:07.706Z,99.90
2017-12-13T16:47:35.660Z,99.90
2017-12-13T16:50:03.958Z,99.90
2017-12-13T16:52:31.920Z,99.90
2017-12-13T16:54:59.998Z,99.90
2017-12-13T16:57:28.036Z,99.90
2017-12-13T16:59:55.827Z,99.90
2017-12-13T17:02:23.872Z,99.90
2017-12-13T17:04:51.920Z,99.90
2017-12-13T17:07:20.116Z,99.90
2017-12-13T17:09:48.196Z,99.90
2017-12-13T17:12:16.176Z,99.90
2017-12-13T17:14:44.143Z,99.90
2017-12-13T17:17:12.301Z,99.90
2017-12-13T17:19:40.182Z,99.90
2017-12-13T17:22:08.047Z,99.90
2017-12-13T17:24:36.838Z,99.90
2017-12-13T17:27:04.792Z,99.90
2017-12-13T17:29:32.558Z,99.90
2017-12-13T17:32:00.426Z,99.90
2017-12-13T17:34:28.306Z,99.90
2017-12-13T17:36:56.305Z,99.90
2017-12-13T17:39:24.914Z,99.90
2017-12-13T17:41:53.447Z,99.90
2017-12-13T17:44:21.525Z,99.90
2017-12-13T17:46:49.488Z,99.90
2017-12-13T17:49:17.325Z,99.90
2017-12-13T17:51:45.218Z,99.90
2017-12-13T17:54:13.263Z,99.90
2017-12-13T17:56:41.101Z,99.90
2017-12-13T17:59:08.949Z,99.90
2017-12-13T18:01:37.609Z,99.90
2017-12-13T18:04:05.573Z,99.90
2017-12-13T18:06:33.550Z,99.90
2017-12-13T18:09:02.440Z,99.90
2017-12-13T18:11:30.386Z,99.90
2017-12-13T18:13:58.362Z,99.90
2017-12-13T18:16:26.419Z,99.90
2017-12-13T18:18:54.418Z,99.90
2017-12-13T18:21:23.237Z,99.90
2017-12-13T18:23:51.207Z,99.90
2017-12-13T18:26:19.830Z,99.90
2017-12-13T18:28:47.729Z,99.90
2017-12-13T18:31:15.685Z,99.90
2017-12-13T18:33:44.226Z,99.90
2017-12-13T18:36:12.271Z,99.90
2017-12-13T18:38:40.875Z,99.90
2017-12-13T18:41:08.868Z,99.90
2017-12-13T18:43:36.938Z,99.90
2017-12-13T18:46:05.866Z,99.90
2017-12-13T18:48:33.716Z,99.90
2017-12-13T18:51:01.765Z,99.90
2017-12-13T18:53:29.739Z,99.90
2017-12-13T18:55:57.631Z,99.90
2017-12-13T18:58:25.499Z,99.90
2017-12-13T19:00:53.463Z,99.90
2017-12-13T19:03:21.340Z,99.90
2017-12-13T19:05:49.494Z,99.90
2017-12-13T19:08:17.380Z,99.90
2017-12-13T19:10:45.379Z,99.90
2017-12-13T19:13:13.468Z,99.90
2017-12-13T19:15:43.643Z,99.90
2017-12-13T19:18:28.949Z,99.90
2017-12-13T19:21:02.826Z,99.90
2017-12-13T19:29:36.335Z,99.90
2017-12-13T19:34:56.477Z,99.90
2017-12-13T19:37:33.107Z,99.90
2017-12-13T19:40:01.942Z,99.90
2017-12-13T19:42:30.681Z,99.90
2017-12-13T19:44:58.665Z,99.90
2017-12-13T19:47:28.104Z,99.90
2017-12-13T19:49:56.840Z,99.90
2017-12-13T19:52:24.713Z,99.90
2017-12-13T19:54:53.090Z,99.90
2017-12-13T19:57:22.819Z,99.90
2017-12-13T19:59:50.874Z,99.90
2017-12-13T20:02:18.976Z,99.90
2017-12-13T20:04:47.645Z,99.90
2017-12-13T20:07:16.528Z,99.90
2017-12-13T20:09:45.503Z,99.90
2017-12-13T20:12:13.910Z,99.90
2017-12-13T20:14:42.820Z,99.90
2017-12-13T20:17:11.545Z,99.90
2017-12-13T20:19:39.885Z,99.90
2017-12-13T20:22:09.263Z,99.90
2017-12-13T20:24:37.316Z,99.90
2017-12-13T20:27:05.194Z,99.90
2017-12-13T20:29:33.553Z,99.90
2017-12-13T20:32:01.621Z,99.90
2017-12-13T20:34:29.593Z,99.90
2017-12-13T20:36:57.690Z,99.90
2017-12-13T20:39:25.565Z,99.90
2017-12-13T20:41:53.495Z,99.90
2017-12-13T20:44:21.466Z,99.90
2017-12-13T20:46:49.369Z,99.90
2017-12-13T20:49:17.284Z,99.90
2017-12-13T20:51:45.309Z,99.90
2017-12-13T20:54:13.974Z,99.90
2017-12-13T20:56:42.028Z,99.90
2017-12-13T20:59:10.097Z,99.90
2017-12-13T21:01:38.215Z,99.90
2017-12-13T21:04:06.907Z,99.90
2017-12-13T21:06:35.676Z,99.90
2017-12-13T21:09:03.926Z,99.90
2017-12-13T21:11:31.888Z,99.90
2017-12-13T21:13:59.911Z,99.90
2017-12-13T21:16:28.461Z,99.90
2017-12-13T21:18:56.499Z,99.90
2017-12-13T21:21:24.583Z,99.90
2017-12-13T21:23:52.596Z,99.90
2017-12-13T21:26:20.727Z,99.90
2017-12-13T21:28:48.692Z,99.90
2017-12-13T21:31:16.875Z,99.90
2017-12-13T21:33:44.940Z,99.90
2017-12-13T21:36:13.006Z,99.90
2017-12-13T21:38:40.875Z,99.90
2017-12-13T21:41:08.857Z,99.90
2017-12-13T21:43:38.594Z,99.90
2017-12-13T21:46:06.659Z,99.90
2017-12-13T21:48:34.794Z,99.10
2017-12-13T21:51:02.990Z,96.20
2017-12-13T21:53:33.199Z,92.00
2017-12-13T21:56:01.178Z,92.00
2017-12-13T21:58:29.179Z,90.80
2017-12-13T22:00:58.226Z,90.90
2017-12-13T22:03:26.106Z,90.60
2017-12-13T22:05:53.966Z,84.00
2017-12-13T22:08:21.905Z,79.80
2017-12-13T22:10:50.443Z,75.40
2017-12-13T22:13:18.291Z,75.30
2017-12-13T22:15:46.079Z,74.90
2017-12-13T22:18:14.722Z,69.60
2017-12-13T22:20:43.545Z,65.40
2017-12-13T22:23:11.507Z,64.20
2017-12-13T22:25:40.097Z,59.10
2017-12-13T22:28:07.839Z,59.30
2017-12-13T22:30:35.706Z,58.10
2017-12-13T22:33:03.675Z,58.90
2017-12-13T22:35:31.446Z,57.30
2017-12-13T22:37:59.314Z,57.50
2017-12-13T22:40:27.277Z,58.60
2017-12-13T22:42:55.257Z,57.10
2017-12-13T22:45:23.827Z,55.90
2017-12-13T22:47:51.655Z,55.70
2017-12-13T22:50:19.571Z,56.00
2017-12-13T22:52:47.436Z,55.70
2017-12-13T22:55:15.316Z,55.00
2017-12-13T22:57:43.571Z,53.40
2017-12-13T23:00:11.465Z,52.90
2017-12-13T23:02:39.290Z,52.90
2017-12-13T23:05:07.190Z,52.10
2017-12-13T23:07:34.924Z,51.80
2017-12-13T23:10:02.631Z,51.00
2017-12-13T23:12:31.136Z,54.00
2017-12-13T23:14:58.926Z,53.70
2017-12-13T23:17:26.655Z,54.70
2017-12-13T23:19:54.376Z,57.50
2017-12-13T23:22:22.097Z,62.40
2017-12-13T23:24:49.816Z,67.80
2017-12-13T23:27:17.536Z,70.40
2017-12-13T23:29:45.424Z,73.40
2017-12-13T23:32:13.211Z,71.00
2017-12-13T23:34:40.999Z,72.00
2017-12-13T23:37:10.094Z,68.10
2017-12-13T23:39:38.731Z,67.30
2017-12-13T23:42:06.489Z,67.60
2017-12-13T23:44:34.463Z,66.90
2017-12-13T23:47:02.757Z,67.40
2017-12-13T23:49:30.493Z,66.10
2017-12-13T23:51:58.601Z,67.10
2017-12-13T23:54:26.312Z,65.20
2017-12-13T23:56:54.104Z,62.90
2017-12-13T23:59:21.860Z,64.60
